Time;durP1;ratioP1;P1;durP2;ratioP2;P2;SDS_P1;SDS_P2;PMS_P1;PMS_P2;Temp;Humidity;BMP_temperature;BMP_pressure;BME280_temperature;BME280_humidity;BME280_pressure;Samples;Min_cycle;Max_cycle;Signal;HPM_P1;HPM_P2
2021/12/30 06:00:44;;;;;;;34.83;16.67;;;;;;;6.01;78.01;100772.34;5607747;31;119473;-58
2021/12/30 06:03:47;;;;;;;42.25;15.00;;;;;;;6.01;78.01;100772.34;5602457;31;33344;-58
2021/12/30 06:06:49;;;;;;;42.03;16.40;;;;;;;5.74;88.83;100766.78;5591400;31;34138;-58
2021/12/30 06:09:51;;;;;;;34.72;15.63;;;;;;;5.84;80.42;100780.25;5585709;31;34448;-58
2021/12/30 06:12:54;;;;;;;37.78;17.83;;;;;;;5.81;84.26;100780.72;5600890;31;33776;-58
2021/12/30 06:15:56;;;;;;;37.42;16.60;;;;;;;5.72;77.66;100798.91;5605417;31;33714;-59
2021/12/30 06:18:59;;;;;;;31.85;16.15;;;;;;;5.72;88.54;100795.47;5589981;31;33669;-59
2021/12/30 06:22:02;;;;;;;37.38;16.45;;;;;;;6.01;83.86;100799.75;5586451;32;33649;-59
2021/12/30 06:25:05;;;;;;;33.13;16.27;;;;;;;6.12;89.49;100806.87;5586589;32;33813;-58
2021/12/30 06:28:08;;;;;;;36.13;15.82;;;;;;;6.37;84.42;100815.53;5586390;32;34473;-58
2021/12/30 06:31:10;;;;;;;34.63;16.12;;;;;;;6.04;76.98;100811.78;5586519;31;33792;-58
2021/12/30 06:34:14;;;;;;;36.55;15.30;;;;;;;5.85;79.39;100816.44;5593071;31;33801;-58
2021/12/30 06:37:16;;;;;;;34.08;15.45;;;;;;;5.86;75.74;100826.03;5609746;31;34132;-58
2021/12/30 06:40:18;;;;;;;32.70;16.23;;;;;;;5.78;82.84;100834.41;5625790;31;33693;-58
2021/12/30 06:43:20;;;;;;;31.77;15.10;;;;;;;5.60;77.13;100838.06;5626111;31;33851;-58
2021/12/30 06:46:23;;;;;;;31.92;15.52;;;;;;;5.72;80.65;100851.31;5613785;31;34410;-58
2021/12/30 06:49:26;;;;;;;33.88;16.00;;;;;;;5.81;83.78;100853.38;5606257;31;34388;-58
2021/12/30 06:52:30;;;;;;;31.42;15.68;;;;;;;5.82;81.32;100860.31;5606165;31;34293;-58
2021/12/30 06:55:32;;;;;;;34.70;16.40;;;;;;;5.84;80.33;100860.06;5589217;31;34336;-58
2021/12/30 06:58:35;;;;;;;29.73;15.02;;;;;;;5.77;76.11;100870.06;5586302;32;33680;-59
2021/12/30 07:01:37;;;;;;;29.90;15.45;;;;;;;5.82;84.51;100880.78;5586118;32;34298;-58
2021/12/30 07:04:40;;;;;;;31.85;16.48;;;;;;;5.82;75.66;100892.22;5586570;32;33849;-58
2021/12/30 07:07:44;;;;;;;32.33;16.23;;;;;;;5.59;76.19;100895.75;5598018;31;34548;-58
2021/12/30 07:10:46;;;;;;;35.08;16.10;;;;;;;5.68;75.49;100908.69;5598892;31;33745;-58
2021/12/30 07:13:48;;;;;;;34.47;16.48;;;;;;;5.67;76.35;100902.59;5592965;31;33761;-58
2021/12/30 07:16:51;;;;;;;30.33;15.23;;;;;;;5.77;74.93;100902.78;5593272;31;34367;-58
2021/12/30 07:19:53;;;;;;;29.63;15.40;;;;;;;5.61;82.30;100906.97;5592572;31;34305;-58
2021/12/30 07:22:56;;;;;;;31.45;15.65;;;;;;;5.55;76.69;100912.41;5592962;31;33674;-58
2021/12/30 07:25:58;;;;;;;34.17;16.17;;;;;;;5.59;82.67;100903.72;5592927;31;33516;-58
2021/12/30 07:29:03;;;;;;;26.75;15.57;;;;;;;5.48;77.74;100896.59;5593045;31;33893;-58
2021/12/30 07:32:05;;;;;;;30.12;15.98;;;;;;;5.52;78.72;100900.38;5597396;31;33722;-58
2021/12/30 07:35:08;;;;;;;33.53;15.35;;;;;;;5.49;79.47;100903.50;5612469;31;33715;-58
2021/12/30 07:38:10;;;;;;;33.00;16.15;;;;;;;5.50;82.31;100922.97;5612482;31;34318;-58
2021/12/30 07:41:13;;;;;;;37.53;16.25;;;;;;;5.54;77.31;100932.09;5612413;31;33624;-58
2021/12/30 07:44:15;;;;;;;41.42;15.93;;;;;;;5.65;76.30;100932.06;5612176;31;34339;-58
2021/12/30 07:47:18;;;;;;;37.08;15.63;;;;;;;5.43;77.93;100941.69;5603902;31;34326;-58
2021/12/30 07:50:22;;;;;;;34.05;16.50;;;;;;;5.38;86.33;100946.88;5612406;31;34196;-58
2021/12/30 07:53:24;;;;;;;35.28;17.17;;;;;;;5.42;77.98;100943.53;5610290;31;33610;-58
2021/12/30 07:56:27;;;;;;;33.22;16.77;;;;;;;5.43;77.23;100949.69;5592848;31;33812;-58
2021/12/30 07:59:31;;;;;;;34.33;16.98;;;;;;;5.38;77.94;100950.34;5592245;31;33976;-58
2021/12/30 08:02:33;;;;;;;33.92;17.75;;;;;;;5.59;76.43;100942.81;5592699;31;33608;-58
2021/12/30 08:05:35;;;;;;;38.30;18.55;;;;;;;5.51;76.85;100954.63;5592031;31;33693;-58
2021/12/30 08:08:39;;;;;;;40.03;17.40;;;;;;;5.44;77.42;100948.63;5592705;31;34281;-59
2021/12/30 08:11:43;;;;;;;39.88;16.73;;;;;;;5.51;76.84;100948.50;5592390;31;33780;-58
2021/12/30 08:14:45;;;;;;;33.55;17.60;;;;;;;5.60;82.26;100939.13;5592341;31;33823;-58
2021/12/30 08:17:49;;;;;;;34.78;18.15;;;;;;;5.46;77.37;100940.41;5592457;31;34177;-58
2021/12/30 08:20:52;;;;;;;36.75;17.55;;;;;;;5.49;76.17;100942.59;5591610;31;34016;-59
2021/12/30 08:23:55;;;;;;;35.50;17.85;;;;;;;5.47;77.02;100952.69;5591621;31;33797;-58
2021/12/30 08:26:59;;;;;;;38.08;18.15;;;;;;;5.45;77.71;100958.22;5594613;31;34362;-59
2021/12/30 08:32:54;;;;;;;34.17;17.40;;;;;;;6.00;81.20;100943.72;5612628;31;75568;-58
2021/12/30 08:35:57;;;;;;;31.15;16.42;;;;;;;6.00;81.20;100943.72;5591235;31;34069;-58
2021/12/30 08:38:59;;;;;;;35.35;16.70;;;;;;;5.62;77.64;100966.28;5601284;31;34628;-58
2021/12/30 08:42:04;;;;;;;33.90;18.30;;;;;;;5.60;76.75;100969.19;5605510;31;33662;-59
2021/12/30 08:45:07;;;;;;;34.75;17.80;;;;;;;5.61;76.58;100970.81;5606865;31;33617;-58
2021/12/30 08:48:10;;;;;;;36.25;17.50;;;;;;;5.77;76.11;100958.66;5606537;31;33789;-58
2021/12/30 08:51:12;;;;;;;37.22;18.23;;;;;;;5.67;76.62;100957.62;5606458;31;34346;-58
2021/12/30 08:54:14;;;;;;;32.30;16.42;;;;;;;5.95;75.04;100972.87;5598125;31;34346;-58
2021/12/30 08:57:18;;;;;;;31.23;15.90;;;;;;;5.84;80.10;100967.31;5587191;31;34342;-58
2021/12/30 09:00:27;;;;;;;31.52;16.10;;;;;;;5.73;76.33;100976.13;5587014;32;33868;-58
2021/12/30 09:03:29;;;;;;;34.22;15.80;;;;;;;5.89;79.05;100975.41;5586653;32;33610;-58
